createdAt,value
2023-05-14T00:02:33.866Z,5.13
2023-05-14T00:06:37.876Z,4.65
2023-05-14T00:10:40.506Z,4.20
2023-05-14T00:14:43.127Z,6.32
2023-05-14T00:18:45.825Z,5.03
2023-05-14T00:22:49.796Z,4.80
2023-05-14T00:26:52.398Z,4.60
2023-05-14T00:30:55.998Z,7.28
2023-05-14T00:34:58.849Z,6.95
2023-05-14T00:39:03.710Z,5.32
2023-05-14T00:43:06.342Z,4.28
2023-05-14T00:47:09.333Z,7.07
2023-05-14T00:51:12.176Z,4.55
2023-05-14T00:55:17.565Z,4.03
2023-05-14T00:59:20.207Z,4.65
2023-05-14T01:03:22.884Z,4.22
2023-05-14T01:07:32.259Z,4.95
2023-05-14T01:11:41.402Z,4.15
2023-05-14T01:15:45.744Z,7.30
2023-05-14T01:19:48.849Z,4.75
2023-05-14T01:23:52.807Z,4.72
2023-05-14T01:27:59.014Z,3.65
2023-05-14T01:32:02.084Z,3.92
2023-05-14T01:36:05.210Z,5.63
2023-05-14T01:40:10.995Z,4.80
2023-05-14T01:44:13.860Z,3.70
2023-05-14T01:48:16.638Z,4.63
2023-05-14T01:52:21.215Z,5.47
2023-05-14T01:56:25.807Z,4.57
2023-05-14T02:00:28.460Z,5.05
2023-05-14T02:04:31.079Z,4.88
2023-05-14T02:08:33.701Z,5.38
2023-05-14T02:12:37.903Z,4.63
2023-05-14T02:16:40.932Z,4.93
2023-05-14T02:20:43.580Z,4.30
2023-05-14T02:24:46.188Z,4.43
2023-05-14T02:28:50.161Z,4.45
2023-05-14T02:32:52.900Z,4.40
2023-05-14T02:36:55.626Z,4.47
2023-05-14T02:40:58.236Z,4.75
2023-05-14T02:45:02.340Z,6.10
2023-05-14T02:49:04.944Z,5.13
2023-05-14T02:53:08.188Z,4.65
2023-05-14T02:57:10.798Z,4.68
2023-05-14T03:01:15.053Z,4.95
2023-05-14T03:05:18.150Z,4.35
2023-05-14T03:09:20.948Z,6.57
2023-05-14T03:13:23.566Z,4.65
2023-05-14T03:17:27.547Z,8.98
2023-05-14T03:21:30.155Z,4.50
2023-05-14T03:25:32.812Z,6.82
2023-05-14T03:29:35.421Z,5.90
2023-05-14T03:33:39.518Z,4.22
2023-05-14T03:37:42.120Z,4.13
2023-05-14T03:41:44.717Z,4.50
2023-05-14T03:45:52.218Z,5.25
2023-05-14T03:49:56.261Z,5.03
2023-05-14T03:53:59.033Z,5.20
2023-05-14T03:58:02.027Z,8.50
2023-05-14T04:02:04.926Z,6.20
2023-05-14T04:06:09.052Z,7.20
2023-05-14T04:10:11.880Z,7.28
2023-05-14T04:14:14.493Z,5.20
2023-05-14T04:18:17.206Z,8.10
2023-05-14T04:22:21.153Z,7.60
2023-05-14T04:30:26.420Z,7.00
2023-05-14T04:34:29.013Z,7.50
2023-05-14T04:38:33.045Z,6.47
2023-05-14T04:42:35.652Z,9.05
2023-05-14T04:46:38.256Z,6.65
2023-05-14T04:50:40.878Z,10.07
2023-05-14T04:54:44.940Z,8.60
2023-05-14T04:58:47.646Z,7.30
2023-05-14T05:02:50.695Z,8.80
2023-05-14T05:06:53.301Z,7.63
2023-05-14T05:10:57.263Z,7.20
2023-05-14T05:14:59.903Z,9.02
2023-05-14T05:19:02.576Z,7.97
2023-05-14T05:23:05.194Z,6.35
2023-05-14T05:27:09.242Z,5.60
2023-05-14T05:31:11.922Z,4.93
2023-05-14T05:35:14.575Z,4.90
2023-05-14T05:39:17.193Z,4.35
2023-05-14T05:43:21.127Z,4.00
2023-05-14T05:47:23.720Z,3.78
2023-05-14T05:51:26.420Z,3.85
2023-05-14T05:55:29.327Z,3.72
2023-05-14T05:59:33.301Z,3.75
2023-05-14T06:03:35.916Z,3.42
2023-05-14T06:07:38.556Z,3.15
2023-05-14T06:11:41.142Z,3.72
2023-05-14T06:15:45.123Z,3.10
2023-05-14T06:19:47.776Z,3.08
2023-05-14T06:23:50.405Z,3.60
2023-05-14T06:27:52.994Z,3.55
2023-05-14T06:31:58.911Z,3.00
2023-05-14T06:36:03.910Z,2.90
2023-05-14T06:40:07.921Z,2.95
2023-05-14T06:44:10.931Z,2.22
2023-05-14T06:48:14.984Z,2.75
2023-05-14T06:52:17.671Z,2.75
2023-05-14T06:56:21.680Z,2.70
2023-05-14T07:00:24.998Z,2.72
2023-05-14T07:04:29.324Z,3.00
2023-05-14T07:08:31.976Z,2.88
2023-05-14T07:12:34.620Z,2.55
2023-05-14T07:16:37.814Z,2.45
2023-05-14T07:20:41.990Z,2.30
2023-05-14T07:24:44.585Z,2.30
2023-05-14T07:32:49.747Z,2.97
2023-05-14T07:36:53.926Z,2.88
2023-05-14T07:40:56.524Z,2.70
2023-05-14T07:44:59.123Z,3.00
2023-05-14T07:49:01.748Z,2.63
2023-05-14T07:53:05.795Z,2.47
2023-05-14T07:57:08.577Z,2.55
2023-05-14T08:01:12.723Z,2.60
2023-05-14T08:05:15.908Z,2.38
2023-05-14T08:09:19.876Z,2.85
2023-05-14T08:13:22.491Z,2.60
2023-05-14T08:17:25.451Z,2.63
2023-05-14T08:21:28.733Z,2.38
2023-05-14T08:25:32.761Z,2.58
2023-05-14T08:29:35.376Z,2.75
2023-05-14T08:33:38.045Z,2.58
2023-05-14T08:37:40.751Z,2.50
2023-05-14T08:41:44.740Z,2.70
2023-05-14T08:45:47.826Z,2.65
2023-05-14T08:49:56.064Z,2.15
2023-05-14T08:54:00.349Z,2.63
2023-05-14T08:58:04.484Z,2.22
2023-05-14T09:02:07.861Z,2.45
2023-05-14T09:06:10.826Z,2.28
2023-05-14T09:10:15.397Z,2.30
2023-05-14T09:14:20.064Z,2.85
2023-05-14T09:18:22.623Z,2.20
2023-05-14T09:26:28.408Z,2.42
2023-05-14T09:30:34.175Z,1.77
2023-05-14T09:34:38.289Z,2.33
2023-05-14T09:38:40.924Z,2.05
2023-05-14T09:42:43.676Z,2.92
2023-05-14T09:46:48.771Z,2.00
2023-05-14T09:50:52.176Z,1.80
2023-05-14T09:54:54.922Z,2.00
2023-05-14T09:58:57.744Z,2.03
2023-05-14T10:03:05.990Z,1.88
2023-05-14T10:07:08.855Z,2.10
2023-05-14T10:11:14.984Z,1.80
2023-05-14T10:15:19.495Z,1.90
2023-05-14T10:19:25.931Z,1.85
2023-05-14T10:23:28.664Z,1.88
2023-05-14T10:27:31.483Z,2.08
2023-05-14T10:31:47.934Z,2.10
2023-05-14T10:35:57.685Z,2.00
2023-05-14T10:40:01.177Z,2.00
2023-05-14T10:44:09.529Z,2.10
2023-05-14T10:48:12.267Z,2.05
2023-05-14T10:56:19.821Z,2.03
2023-05-14T11:00:27.691Z,2.13
2023-05-14T11:04:30.383Z,2.40
2023-05-14T11:12:38.885Z,1.92
2023-05-14T11:16:42.396Z,1.80
2023-05-14T11:20:45.087Z,1.98
2023-05-14T11:28:52.433Z,1.95
2023-05-14T11:32:55.221Z,1.83
2023-05-14T11:36:57.874Z,2.08
2023-05-14T11:41:04.313Z,2.40
2023-05-14T11:45:08.116Z,2.08
2023-05-14T11:49:11.433Z,2.55
2023-05-14T11:53:18.052Z,2.20
2023-05-14T11:57:23.124Z,1.90
2023-05-14T12:01:25.964Z,2.05
2023-05-14T12:05:28.584Z,2.15
2023-05-14T12:13:35.305Z,2.33
2023-05-14T12:17:39.022Z,2.00
2023-05-14T12:21:42.217Z,1.80
2023-05-14T12:25:51.293Z,1.73
2023-05-14T12:30:19.233Z,1.95
2023-05-14T12:34:23.067Z,2.10
2023-05-14T12:42:28.166Z,3.60
2023-05-14T12:46:32.232Z,2.90
2023-05-14T12:50:34.981Z,3.70
2023-05-14T12:54:41.677Z,3.00
2023-05-14T12:58:46.671Z,2.95
2023-05-14T13:02:50.784Z,3.08
2023-05-14T13:06:54.505Z,2.53
2023-05-14T13:10:58.870Z,2.10
2023-05-14T13:15:01.537Z,2.60
2023-05-14T13:19:05.649Z,2.28
2023-05-14T13:23:08.459Z,2.30
2023-05-14T13:27:11.109Z,2.50
2023-05-14T13:31:17.409Z,2.20
2023-05-14T13:35:21.693Z,2.33
2023-05-14T13:39:27.198Z,2.30
2023-05-14T13:43:30.732Z,1.70
2023-05-14T13:47:33.646Z,1.40
2023-05-14T13:51:37.708Z,1.70
2023-05-14T13:55:40.405Z,1.50
2023-05-14T13:59:43.341Z,1.80
2023-05-14T14:03:45.995Z,1.63
2023-05-14T14:11:55.638Z,1.75
2023-05-14T14:20:05.197Z,1.35
2023-05-14T14:24:09.282Z,1.23
2023-05-14T14:28:11.976Z,1.63
2023-05-14T14:32:14.677Z,1.50
2023-05-14T14:36:17.339Z,1.60
2023-05-14T14:40:23.770Z,1.40
2023-05-14T14:44:26.445Z,1.30
2023-05-14T14:48:31.480Z,1.13
2023-05-14T14:52:34.199Z,1.20
2023-05-14T14:56:39.098Z,1.25
2023-05-14T15:00:41.788Z,1.00
2023-05-14T15:08:46.876Z,1.40
2023-05-14T15:12:51.046Z,1.40
2023-05-14T15:16:53.725Z,1.40
2023-05-14T15:20:56.981Z,1.33
2023-05-14T15:24:59.600Z,1.50
2023-05-14T15:29:04.642Z,1.55
2023-05-14T15:33:08.485Z,1.48
2023-05-14T15:37:11.311Z,1.20
2023-05-14T15:45:17.721Z,1.20
2023-05-14T15:49:20.330Z,1.33
2023-05-14T15:53:23.236Z,1.30
2023-05-14T15:57:25.881Z,1.13
2023-05-14T16:01:29.869Z,1.17
2023-05-14T16:05:32.539Z,1.50
2023-05-14T16:09:35.151Z,1.70
2023-05-14T16:13:39.083Z,1.70
2023-05-14T16:17:43.093Z,1.48
2023-05-14T16:21:45.966Z,1.60
2023-05-14T16:25:48.687Z,1.60
2023-05-14T16:29:53.912Z,1.98
2023-05-14T16:33:59.424Z,1.77
2023-05-14T16:38:02.220Z,1.70
2023-05-14T16:42:05.381Z,1.70
2023-05-14T16:50:12.978Z,2.28
2023-05-14T16:54:16.709Z,1.50
2023-05-14T16:58:19.380Z,1.77
2023-05-14T17:02:21.982Z,1.48
2023-05-14T17:06:26.301Z,1.55
2023-05-14T17:10:30.315Z,1.80
2023-05-14T17:14:32.976Z,1.80
2023-05-14T17:18:35.699Z,1.80
2023-05-14T17:22:39.832Z,1.80
2023-05-14T17:26:42.480Z,1.70
2023-05-14T17:30:45.458Z,1.63
2023-05-14T17:34:48.056Z,1.48
2023-05-14T17:38:52.462Z,1.92
2023-05-14T17:42:55.136Z,1.70
2023-05-14T17:46:58.085Z,2.05
2023-05-14T17:51:00.725Z,1.83
2023-05-14T17:55:05.183Z,1.75
2023-05-14T17:59:07.804Z,2.20
2023-05-14T18:03:10.761Z,2.40
2023-05-14T18:07:13.599Z,2.53
2023-05-14T18:11:17.630Z,2.53
2023-05-14T18:15:20.468Z,2.25
2023-05-14T18:19:23.761Z,2.30
2023-05-14T18:23:26.474Z,8.73
2023-05-14T18:27:31.400Z,2.90
2023-05-14T18:31:34.085Z,2.50
2023-05-14T18:35:36.827Z,2.50
2023-05-14T18:39:39.438Z,2.60
2023-05-14T18:43:43.390Z,2.60
2023-05-14T18:47:46.215Z,2.60
2023-05-14T18:51:48.948Z,2.90
2023-05-14T18:55:51.789Z,3.08
2023-05-14T18:59:56.679Z,2.70
2023-05-14T19:03:59.333Z,2.65
2023-05-14T19:08:02.024Z,2.50
2023-05-14T19:12:05.115Z,2.45
2023-05-14T19:16:09.350Z,2.47
2023-05-14T19:20:12.816Z,3.10
2023-05-14T19:24:15.877Z,3.60
2023-05-14T19:28:19.873Z,5.15
2023-05-14T19:32:24.103Z,3.65
2023-05-14T19:36:26.783Z,3.08
2023-05-14T19:40:29.565Z,2.50
2023-05-14T19:44:32.297Z,3.03
2023-05-14T19:48:36.228Z,4.03
2023-05-14T19:52:39.480Z,4.57
2023-05-14T19:56:42.158Z,3.90
2023-05-14T20:00:44.802Z,3.90
2023-05-14T20:04:49.468Z,3.72
2023-05-14T20:08:52.621Z,4.97
2023-05-14T20:12:55.553Z,3.90
2023-05-14T20:16:59.906Z,4.68
2023-05-14T20:21:03.982Z,4.13
2023-05-14T20:25:08.971Z,3.78
2023-05-14T20:29:14.360Z,4.80
2023-05-14T20:33:17.041Z,3.65
2023-05-14T20:37:21.603Z,4.10
2023-05-14T20:41:24.302Z,3.78
2023-05-14T20:45:27.302Z,3.42
2023-05-14T20:49:30.052Z,3.35
2023-05-14T20:53:35.427Z,3.30
2023-05-14T20:57:38.107Z,3.58
2023-05-14T21:01:42.627Z,3.67
2023-05-14T21:05:45.697Z,3.67
2023-05-14T21:09:52.303Z,4.22
2023-05-14T21:13:55.074Z,4.13
2023-05-14T21:17:57.830Z,4.53
2023-05-14T21:22:00.479Z,4.35
2023-05-14T21:26:04.739Z,4.00
2023-05-14T21:30:08.711Z,4.95
2023-05-14T21:34:11.326Z,4.65
2023-05-14T21:38:13.988Z,5.00
2023-05-14T21:42:20.824Z,4.28
2023-05-14T21:46:23.467Z,4.97
2023-05-14T21:50:26.232Z,4.38
2023-05-14T21:54:28.863Z,3.90
2023-05-14T21:58:32.935Z,4.57
2023-05-14T22:02:35.525Z,5.03
2023-05-14T22:06:38.363Z,4.60
2023-05-14T22:10:41.013Z,4.22
2023-05-14T22:14:45.009Z,3.78
2023-05-14T22:18:48.014Z,5.82
2023-05-14T22:22:51.516Z,5.25
2023-05-14T22:26:54.678Z,4.30
2023-05-14T22:30:59.747Z,4.50
2023-05-14T22:35:03.205Z,4.93
2023-05-14T22:43:08.471Z,5.00
2023-05-14T22:47:12.437Z,5.25
2023-05-14T22:51:15.068Z,6.13
2023-05-14T22:55:17.788Z,5.93
2023-05-14T22:59:22.725Z,5.40
2023-05-14T23:03:27.844Z,4.90
2023-05-14T23:07:30.743Z,5.28
2023-05-14T23:11:33.324Z,6.35
2023-05-14T23:15:35.990Z,4.72
2023-05-14T23:19:39.975Z,6.03
2023-05-14T23:23:42.680Z,6.35
2023-05-14T23:27:45.406Z,6.22
2023-05-14T23:31:48.069Z,5.53
2023-05-14T23:35:52.080Z,5.93
2023-05-14T23:39:54.692Z,5.68
2023-05-14T23:43:57.390Z,5.72
2023-05-14T23:48:00.338Z,7.85
2023-05-14T23:52:04.752Z,6.07
2023-05-14T23:56:07.880Z,5.25
